createdAt,value
2017-05-15T00:00:15.534Z,922.73
2017-05-15T00:00:43.681Z,922.71
2017-05-15T00:01:11.963Z,922.72
2017-05-15T00:01:40.249Z,922.73
2017-05-15T00:02:08.514Z,922.74
2017-05-15T00:02:36.938Z,922.7
2017-05-15T00:03:05.349Z,922.7
2017-05-15T00:03:33.721Z,922.75
2017-05-15T00:04:01.949Z,922.69
2017-05-15T00:05:13.334Z,922.72
2017-05-15T00:05:41.741Z,922.76
2017-05-15T00:06:09.921Z,922.75
2017-05-15T00:06:38.257Z,922.76
2017-05-15T00:07:06.540Z,922.74
2017-05-15T00:07:34.919Z,922.74
2017-05-15T00:08:03.184Z,922.78
2017-05-15T00:08:31.609Z,922.77
2017-05-15T00:09:00.021Z,922.79
2017-05-15T00:09:28.301Z,922.77
2017-05-15T00:09:56.717Z,922.82
2017-05-15T00:11:08.187Z,922.81
2017-05-15T00:11:36.410Z,922.87
2017-05-15T00:12:04.500Z,922.87
2017-05-15T00:12:32.737Z,922.9
2017-05-15T00:13:01.114Z,922.89
2017-05-15T00:13:29.310Z,922.84
2017-05-15T00:13:57.570Z,922.84
2017-05-15T00:14:25.899Z,922.86
2017-05-15T00:14:54.316Z,922.89
2017-05-15T00:15:22.499Z,922.86
2017-05-15T00:15:50.916Z,922.86
2017-05-15T00:17:02.309Z,922.89
2017-05-15T00:17:30.625Z,922.87
2017-05-15T00:17:58.988Z,922.9
2017-05-15T00:18:27.233Z,922.87
2017-05-15T00:18:55.326Z,922.92
2017-05-15T00:19:23.709Z,922.97
2017-05-15T00:19:51.885Z,922.89
2017-05-15T00:20:20.219Z,922.89
2017-05-15T00:20:48.635Z,922.94
2017-05-15T00:21:16.915Z,922.95
2017-05-15T00:21:45.329Z,922.93
2017-05-15T00:22:56.813Z,922.89
2017-05-15T00:23:25.128Z,922.95
2017-05-15T00:23:53.489Z,922.92
2017-05-15T00:24:21.730Z,922.92
2017-05-15T00:24:50.014Z,922.95
2017-05-15T00:25:18.218Z,922.96
2017-05-15T00:25:46.483Z,922.96
2017-05-15T00:26:14.906Z,923.04
2017-05-15T00:26:43.233Z,923.02
2017-05-15T00:27:11.421Z,923.03
2017-05-15T00:27:39.832Z,923.05
2017-05-15T00:28:51.128Z,923.06
2017-05-15T00:29:19.447Z,923.02
2017-05-15T00:29:47.811Z,923.02
2017-05-15T00:30:16.044Z,922.98
2017-05-15T00:30:44.324Z,923
2017-05-15T00:31:12.706Z,923.03
2017-05-15T00:31:40.973Z,923.02
2017-05-15T00:32:09.400Z,923.03
2017-05-15T00:32:37.716Z,923.03
2017-05-15T00:33:06.092Z,923.02
2017-05-15T00:33:34.407Z,922.98
2017-05-15T00:34:45.882Z,922.96
2017-05-15T00:35:14.104Z,923.02
2017-05-15T00:35:42.366Z,923.02
2017-05-15T00:36:10.612Z,923.01
2017-05-15T00:36:38.895Z,922.98
2017-05-15T00:37:07.181Z,923.01
2017-05-15T00:37:35.447Z,923
2017-05-15T00:38:03.872Z,923
2017-05-15T00:38:32.201Z,922.99
2017-05-15T00:39:00.579Z,922.99
2017-05-15T00:39:28.993Z,923.04
2017-05-15T00:40:40.386Z,923.04
2017-05-15T00:41:08.758Z,923.07
2017-05-15T00:41:37.027Z,923.03
2017-05-15T00:42:05.359Z,923.04
2017-05-15T00:42:33.736Z,923.06
2017-05-15T00:43:02.118Z,923.03
2017-05-15T00:43:30.474Z,923.04
2017-05-15T00:43:58.896Z,923.04
2017-05-15T00:44:27.242Z,923.05
2017-05-15T00:44:55.520Z,923.01
2017-05-15T00:45:23.746Z,923.03
2017-05-15T00:46:35.225Z,923.02
2017-05-15T00:47:03.449Z,923.02
2017-05-15T00:47:31.718Z,923
2017-05-15T00:47:59.864Z,923.03
2017-05-15T00:48:28.240Z,923.02
2017-05-15T00:48:56.627Z,923.01
2017-05-15T00:49:24.981Z,923.05
2017-05-15T00:49:53.404Z,923.03
2017-05-15T00:50:21.725Z,923.03
2017-05-15T00:50:49.916Z,923.05
2017-05-15T00:51:18.237Z,923.06
2017-05-15T00:52:29.628Z,923.06
2017-05-15T00:52:58.047Z,923.07
2017-05-15T00:53:26.320Z,923.07
2017-05-15T00:53:54.651Z,923.13
2017-05-15T00:54:23.039Z,923.09
2017-05-15T00:54:51.316Z,923.1
2017-05-15T00:55:19.672Z,923.08
2017-05-15T00:55:48.100Z,923.09
2017-05-15T00:56:16.520Z,923.12
2017-05-15T00:56:44.800Z,923.14
2017-05-15T00:57:13.122Z,923.11
2017-05-15T00:58:24.605Z,923.08
2017-05-15T00:58:52.936Z,923.07
2017-05-15T00:59:21.211Z,923.14
2017-05-15T00:59:49.451Z,923.11
2017-05-15T01:00:17.639Z,923.18
2017-05-15T01:00:45.926Z,923.14
2017-05-15T01:01:14.237Z,923.16
2017-05-15T01:01:42.613Z,923.16
2017-05-15T01:02:11.028Z,923.16
2017-05-15T01:02:39.310Z,923.15
2017-05-15T01:03:07.629Z,923.12
2017-05-15T01:04:19.016Z,923.12
2017-05-15T01:04:47.430Z,923.15
2017-05-15T01:05:15.788Z,923.17
2017-05-15T01:05:44.122Z,923.16
2017-05-15T01:06:12.405Z,923.14
2017-05-15T01:06:40.695Z,923.16
2017-05-15T01:07:09.049Z,923.17
2017-05-15T01:07:37.471Z,923.19
2017-05-15T01:08:05.706Z,923.16
2017-05-15T01:08:33.988Z,923.2
2017-05-15T01:09:02.310Z,923.19
2017-05-15T01:10:13.700Z,923.22
2017-05-15T01:10:42.022Z,923.25
2017-05-15T01:11:10.289Z,923.2
2017-05-15T01:11:38.618Z,923.18
2017-05-15T01:12:06.995Z,923.22
2017-05-15T01:12:35.372Z,923.2
2017-05-15T01:13:03.641Z,923.2
2017-05-15T01:13:32.062Z,923.2
2017-05-15T01:14:00.480Z,923.2
2017-05-15T01:14:28.859Z,923.23
2017-05-15T01:14:57.176Z,923.24
2017-05-15T01:16:08.661Z,923.22
2017-05-15T01:16:37.072Z,923.23
2017-05-15T01:17:05.335Z,923.24
2017-05-15T01:17:33.389Z,923.21
2017-05-15T01:18:01.489Z,923.25
2017-05-15T01:18:29.779Z,923.24
2017-05-15T01:18:57.953Z,923.22
2017-05-15T01:19:26.287Z,923.26
2017-05-15T01:19:54.699Z,923.27
2017-05-15T01:20:22.984Z,923.24
2017-05-15T01:20:51.396Z,923.26
2017-05-15T01:22:02.885Z,923.25
2017-05-15T01:22:31.200Z,923.27
2017-05-15T01:22:59.562Z,923.25
2017-05-15T01:23:27.808Z,923.26
2017-05-15T01:23:56.183Z,923.27
2017-05-15T01:24:24.374Z,923.28
2017-05-15T01:24:52.732Z,923.29
2017-05-15T01:25:21.063Z,923.29
2017-05-15T01:25:49.478Z,923.28
2017-05-15T01:26:17.850Z,923.3
2017-05-15T01:26:46.163Z,923.27
2017-05-15T01:27:57.646Z,923.29
2017-05-15T01:28:25.874Z,923.3
2017-05-15T01:28:54.232Z,923.3
2017-05-15T01:29:22.475Z,923.3
2017-05-15T01:29:50.850Z,923.3
2017-05-15T01:30:19.232Z,923.31
2017-05-15T01:30:47.591Z,923.29
2017-05-15T01:31:16.018Z,923.3
2017-05-15T01:31:44.433Z,923.34
2017-05-15T01:32:12.806Z,923.31
2017-05-15T01:32:41.361Z,923.32
2017-05-15T01:33:52.839Z,923.27
2017-05-15T01:34:21.205Z,923.3
2017-05-15T01:34:49.571Z,923.28
2017-05-15T01:35:17.717Z,923.33
2017-05-15T01:35:46.090Z,923.31
2017-05-15T01:36:14.469Z,923.32
2017-05-15T01:36:42.727Z,923.32
2017-05-15T01:37:11.149Z,923.32
2017-05-15T01:37:39.466Z,923.34
2017-05-15T01:38:07.843Z,923.35
2017-05-15T01:38:36.169Z,923.33
2017-05-15T01:39:47.554Z,923.32
2017-05-15T01:40:15.870Z,923.3
2017-05-15T01:40:44.139Z,923.33
2017-05-15T01:41:12.473Z,923.38
2017-05-15T01:41:40.848Z,923.38
2017-05-15T01:42:09.232Z,923.4
2017-05-15T01:42:37.590Z,923.37
2017-05-15T01:43:06.014Z,923.38
2017-05-15T01:43:34.428Z,923.38
2017-05-15T01:44:02.522Z,923.39
2017-05-15T01:44:30.839Z,923.39
2017-05-15T01:45:42.227Z,923.39
2017-05-15T01:46:10.545Z,923.4
2017-05-15T01:46:38.810Z,923.38
2017-05-15T01:47:07.050Z,923.39
2017-05-15T01:47:35.151Z,923.4
2017-05-15T01:48:03.535Z,923.4
2017-05-15T01:48:31.893Z,923.38
2017-05-15T01:49:00.226Z,923.39
2017-05-15T01:49:28.551Z,923.4
2017-05-15T01:49:56.837Z,923.43
2017-05-15T01:50:25.250Z,923.43
2017-05-15T01:51:36.637Z,923.44
2017-05-15T01:52:04.950Z,923.41
2017-05-15T01:52:33.132Z,923.43
2017-05-15T01:53:01.374Z,923.45
2017-05-15T01:53:29.569Z,923.43
2017-05-15T01:53:57.954Z,923.45
2017-05-15T01:54:26.217Z,923.44
2017-05-15T01:54:54.641Z,923.42
2017-05-15T01:55:23.066Z,923.45
2017-05-15T01:55:51.236Z,923.42
2017-05-15T01:56:19.556Z,923.4
2017-05-15T01:57:30.948Z,923.43
2017-05-15T01:57:59.359Z,923.4
2017-05-15T01:58:27.624Z,923.4
2017-05-15T01:58:55.964Z,923.39
2017-05-15T01:59:24.241Z,923.42
2017-05-15T01:59:52.626Z,923.42
2017-05-15T02:00:20.977Z,923.44
2017-05-15T02:00:49.401Z,923.42
2017-05-15T02:01:17.825Z,923.41
2017-05-15T02:01:46.107Z,923.41
2017-05-15T02:02:14.520Z,923.43
2017-05-15T02:03:26.005Z,923.46
2017-05-15T02:03:54.419Z,923.45
2017-05-15T02:04:22.691Z,923.47
2017-05-15T02:04:51.020Z,923.45
2017-05-15T02:05:19.399Z,923.48
2017-05-15T02:05:47.826Z,923.44
2017-05-15T02:06:16.045Z,923.46
2017-05-15T02:06:44.378Z,923.45
2017-05-15T02:07:12.797Z,923.42
2017-05-15T02:07:40.989Z,923.45
2017-05-15T02:08:09.306Z,923.42
2017-05-15T02:09:20.788Z,923.45
2017-05-15T02:09:49.099Z,923.49
2017-05-15T02:10:17.368Z,923.47
2017-05-15T02:10:45.605Z,923.49
2017-05-15T02:11:13.888Z,923.45
2017-05-15T02:11:42.181Z,923.47
2017-05-15T02:12:10.441Z,923.46
2017-05-15T02:12:38.774Z,923.45
2017-05-15T02:13:07.092Z,923.47
2017-05-15T02:13:35.466Z,923.49
2017-05-15T02:14:03.600Z,923.48
2017-05-15T02:15:15.087Z,923.46
2017-05-15T02:15:43.406Z,923.46
2017-05-15T02:16:11.672Z,923.49
2017-05-15T02:16:39.814Z,923.5
2017-05-15T02:17:08.187Z,923.49
2017-05-15T02:17:36.473Z,923.48
2017-05-15T02:18:04.832Z,923.48
2017-05-15T02:18:33.253Z,923.47
2017-05-15T02:19:01.578Z,923.45
2017-05-15T02:19:29.857Z,923.46
2017-05-15T02:19:58.085Z,923.48
2017-05-15T02:21:09.565Z,923.46
2017-05-15T02:21:37.975Z,923.48
2017-05-15T02:22:06.146Z,923.48
2017-05-15T02:22:34.392Z,923.45
2017-05-15T02:23:02.763Z,923.47
2017-05-15T02:23:31.054Z,923.45
2017-05-15T02:23:59.411Z,923.47
2017-05-15T02:24:27.742Z,923.47
2017-05-15T02:24:56.064Z,923.5
2017-05-15T02:25:24.249Z,923.47
2017-05-15T02:25:52.470Z,923.44
2017-05-15T02:27:03.949Z,923.5
2017-05-15T02:27:32.352Z,923.44
2017-05-15T02:28:00.437Z,923.42
2017-05-15T02:28:28.771Z,923.45
2017-05-15T02:28:57.144Z,923.43
2017-05-15T02:29:25.252Z,923.45
2017-05-15T02:29:53.603Z,923.45
2017-05-15T02:30:21.932Z,923.44
2017-05-15T02:30:50.369Z,923.45
2017-05-15T02:31:18.557Z,923.45
2017-05-15T02:31:46.886Z,923.44
2017-05-15T02:32:58.268Z,923.43
2017-05-15T02:33:26.670Z,923.45
2017-05-15T02:33:54.985Z,923.41
2017-05-15T02:34:23.265Z,923.44
2017-05-15T02:34:51.546Z,923.42
2017-05-15T02:35:19.835Z,923.43
2017-05-15T02:35:47.914Z,923.43
2017-05-15T02:36:16.239Z,923.44
2017-05-15T02:36:44.652Z,923.42
2017-05-15T02:37:12.843Z,923.38
2017-05-15T02:37:41.065Z,923.43
2017-05-15T02:38:52.549Z,923.4
2017-05-15T02:39:20.877Z,923.41
2017-05-15T02:39:49.246Z,923.42
2017-05-15T02:40:17.576Z,923.4
2017-05-15T02:40:45.855Z,923.42
2017-05-15T02:41:14.140Z,923.44
2017-05-15T02:41:42.399Z,923.42
2017-05-15T02:42:10.729Z,923.44
2017-05-15T02:42:39.047Z,923.43
2017-05-15T02:43:07.422Z,923.47
2017-05-15T02:43:35.835Z,923.44
2017-05-15T02:44:47.314Z,923.47
2017-05-15T02:45:15.627Z,923.47
2017-05-15T02:45:43.894Z,923.47
2017-05-15T02:46:12.037Z,923.45
2017-05-15T02:46:40.226Z,923.45
2017-05-15T02:47:08.517Z,923.44
2017-05-15T02:47:36.682Z,923.44
2017-05-15T02:48:05.107Z,923.46
2017-05-15T02:48:33.522Z,923.49
2017-05-15T02:49:01.895Z,923.46
2017-05-15T02:49:30.031Z,923.48
2017-05-15T02:50:41.331Z,923.48
2017-05-15T02:51:09.742Z,923.49
2017-05-15T02:51:37.823Z,923.46
2017-05-15T02:52:06.153Z,923.45
2017-05-15T02:52:34.427Z,923.48
2017-05-15T02:53:02.714Z,923.45
2017-05-15T02:53:30.982Z,923.44
2017-05-15T02:53:59.308Z,923.46
2017-05-15T02:54:27.537Z,923.42
2017-05-15T02:54:55.907Z,923.44
2017-05-15T02:55:24.136Z,923.46
2017-05-15T02:56:35.429Z,923.45
2017-05-15T02:57:03.650Z,923.47
2017-05-15T02:57:31.920Z,923.44
2017-05-15T02:58:00.247Z,923.43
2017-05-15T02:58:28.481Z,923.41
2017-05-15T02:58:56.820Z,923.42
2017-05-15T02:59:25.172Z,923.4
2017-05-15T02:59:53.597Z,923.44
2017-05-15T03:00:21.919Z,923.41
2017-05-15T03:00:50.292Z,923.43
2017-05-15T03:01:18.523Z,923.42
2017-05-15T03:02:29.908Z,923.4
2017-05-15T03:02:58.225Z,923.38
2017-05-15T03:03:26.488Z,923.36
2017-05-15T03:03:54.724Z,923.4
2017-05-15T03:04:22.911Z,923.34
2017-05-15T03:04:51.194Z,923.34
2017-05-15T03:05:19.452Z,923.34
2017-05-15T03:05:47.783Z,923.34
2017-05-15T03:06:16.011Z,923.34
2017-05-15T03:06:44.380Z,923.34
2017-05-15T03:07:12.745Z,923.38
2017-05-15T03:08:24.134Z,923.35
2017-05-15T03:08:52.545Z,923.38
2017-05-15T03:09:20.809Z,923.33
2017-05-15T03:09:49.139Z,923.36
2017-05-15T03:10:17.425Z,923.34
2017-05-15T03:10:45.708Z,923.32
2017-05-15T03:11:13.968Z,923.35
2017-05-15T03:11:42.385Z,923.33
2017-05-15T03:12:10.524Z,923.35
2017-05-15T03:12:38.895Z,923.35
2017-05-15T03:13:07.309Z,923.37
2017-05-15T03:14:18.693Z,923.4
2017-05-15T03:14:46.909Z,923.39
2017-05-15T03:15:15.078Z,923.42
2017-05-15T03:15:43.228Z,923.41
2017-05-15T03:16:11.406Z,923.43
2017-05-15T03:16:39.508Z,923.43
2017-05-15T03:17:07.583Z,923.41
2017-05-15T03:17:35.906Z,923.43
2017-05-15T03:18:04.323Z,923.45
2017-05-15T03:18:32.601Z,923.41
2017-05-15T03:19:00.911Z,923.4
2017-05-15T03:20:12.392Z,923.44
2017-05-15T03:20:40.704Z,923.42
2017-05-15T03:21:08.783Z,923.42
2017-05-15T03:21:36.926Z,923.41
2017-05-15T03:22:05.295Z,923.42
2017-05-15T03:22:33.676Z,923.43
2017-05-15T03:23:01.839Z,923.42
2017-05-15T03:23:30.263Z,923.45
2017-05-15T03:23:58.496Z,923.48
2017-05-15T03:24:26.870Z,923.44
2017-05-15T03:24:55.278Z,923.48
2017-05-15T03:26:06.757Z,923.51
2017-05-15T03:26:35.070Z,923.54
2017-05-15T03:27:03.335Z,923.59
2017-05-15T03:27:31.572Z,923.59
2017-05-15T03:27:59.665Z,923.62
2017-05-15T03:28:27.953Z,923.63
2017-05-15T03:28:56.308Z,923.6
2017-05-15T03:29:24.727Z,923.6
2017-05-15T03:29:53.043Z,923.58
2017-05-15T03:30:21.321Z,923.58
2017-05-15T03:30:49.455Z,923.59
2017-05-15T03:32:00.847Z,923.6
2017-05-15T03:32:29.260Z,923.61
2017-05-15T03:32:57.622Z,923.63
2017-05-15T03:33:25.956Z,923.65
2017-05-15T03:33:54.344Z,923.61
2017-05-15T03:34:22.623Z,923.62
2017-05-15T03:34:50.887Z,923.65
2017-05-15T03:35:19.314Z,923.65
2017-05-15T03:35:47.637Z,923.63
2017-05-15T03:36:16.009Z,923.67
2017-05-15T03:36:44.235Z,923.61
2017-05-15T03:37:55.623Z,923.59
2017-05-15T03:38:24.031Z,923.64
2017-05-15T03:38:52.392Z,923.63
2017-05-15T03:39:20.722Z,923.63
2017-05-15T03:39:48.906Z,923.62
2017-05-15T03:40:17.291Z,923.62
2017-05-15T03:40:45.461Z,923.6
2017-05-15T03:41:13.884Z,923.58
2017-05-15T03:41:42.202Z,923.6
2017-05-15T03:42:10.486Z,923.64
2017-05-15T03:42:38.903Z,923.63
2017-05-15T03:43:50.285Z,923.59
2017-05-15T03:44:18.692Z,923.61
2017-05-15T03:44:46.956Z,923.62
2017-05-15T03:45:15.197Z,923.66
2017-05-15T03:45:43.382Z,923.62
2017-05-15T03:46:11.669Z,923.71
2017-05-15T03:46:39.939Z,923.7
2017-05-15T03:47:08.267Z,923.73
2017-05-15T03:47:36.583Z,923.73
2017-05-15T03:48:04.861Z,923.71
2017-05-15T03:48:33.274Z,923.74
2017-05-15T03:49:44.749Z,923.73
2017-05-15T03:50:13.154Z,923.71
2017-05-15T03:50:41.323Z,923.68
2017-05-15T03:51:09.560Z,923.75
2017-05-15T03:51:37.841Z,923.73
2017-05-15T03:52:06.124Z,923.72
2017-05-15T03:52:34.401Z,923.71
2017-05-15T03:53:02.821Z,923.73
2017-05-15T03:53:31.049Z,923.72
2017-05-15T03:53:59.234Z,923.73
2017-05-15T03:54:27.551Z,923.67
2017-05-15T03:55:39.041Z,923.74
2017-05-15T03:56:07.367Z,923.78
2017-05-15T03:56:35.622Z,923.78
2017-05-15T03:57:03.859Z,923.74
2017-05-15T03:57:32.050Z,923.76
2017-05-15T03:58:00.432Z,923.77
2017-05-15T03:58:28.695Z,923.83
2017-05-15T03:58:57.117Z,923.82
2017-05-15T03:59:25.532Z,923.79
2017-05-15T03:59:53.908Z,923.79
2017-05-15T04:00:22.040Z,923.8
2017-05-15T04:01:33.524Z,923.8
2017-05-15T04:02:01.837Z,923.84
2017-05-15T04:02:30.104Z,923.83
2017-05-15T04:02:58.341Z,923.83
2017-05-15T04:03:26.713Z,923.84
2017-05-15T04:03:55.097Z,923.86
2017-05-15T04:04:23.453Z,923.85
2017-05-15T04:04:51.874Z,923.81
2017-05-15T04:05:20.196Z,923.81
2017-05-15T04:05:48.477Z,923.82
2017-05-15T04:06:16.889Z,923.79
2017-05-15T04:07:28.271Z,923.81
2017-05-15T04:07:56.585Z,923.73
2017-05-15T04:08:24.754Z,923.75
2017-05-15T04:08:52.991Z,923.73
2017-05-15T04:09:21.182Z,923.76
2017-05-15T04:09:49.565Z,923.73
2017-05-15T04:10:17.920Z,923.71
2017-05-15T04:10:46.249Z,923.73
2017-05-15T04:11:14.485Z,923.69
2017-05-15T04:11:42.768Z,923.7
2017-05-15T04:12:11.085Z,923.7
2017-05-15T04:13:22.572Z,923.65
2017-05-15T04:13:50.983Z,923.64
2017-05-15T04:14:19.071Z,923.63
2017-05-15T04:14:47.308Z,923.62
2017-05-15T04:15:15.588Z,923.6
2017-05-15T04:15:43.971Z,923.59
2017-05-15T04:16:12.329Z,923.55
2017-05-15T04:16:40.749Z,923.56
2017-05-15T04:17:09.160Z,923.56
2017-05-15T04:17:37.447Z,923.54
2017-05-15T04:18:05.775Z,923.57
2017-05-15T04:19:17.263Z,923.58
2017-05-15T04:19:45.488Z,923.59
2017-05-15T04:20:13.666Z,923.54
2017-05-15T04:20:41.902Z,923.52
2017-05-15T04:21:10.274Z,923.52
2017-05-15T04:21:38.476Z,923.45
2017-05-15T04:22:06.833Z,923.51
2017-05-15T04:22:35.164Z,923.5
2017-05-15T04:23:03.586Z,923.53
2017-05-15T04:23:31.959Z,923.54
2017-05-15T04:24:00.283Z,923.54
2017-05-15T04:25:11.764Z,923.56
2017-05-15T04:25:40.176Z,923.59
2017-05-15T04:26:08.446Z,923.54
2017-05-15T04:26:36.776Z,923.51
2017-05-15T04:27:05.153Z,923.54
2017-05-15T04:27:33.543Z,923.55
2017-05-15T04:28:01.808Z,923.58
2017-05-15T04:28:30.231Z,923.54
2017-05-15T04:28:58.565Z,923.59
2017-05-15T04:29:26.849Z,923.56
2017-05-15T04:29:55.073Z,923.57
2017-05-15T04:31:06.557Z,923.58
2017-05-15T04:31:34.958Z,923.56
2017-05-15T04:32:03.222Z,923.49
2017-05-15T04:32:31.559Z,923.55
2017-05-15T04:32:59.845Z,923.54
2017-05-15T04:33:28.133Z,923.52
2017-05-15T04:33:56.487Z,923.54
2017-05-15T04:34:24.913Z,923.54
2017-05-15T04:34:53.141Z,923.56
2017-05-15T04:35:21.518Z,923.57
2017-05-15T04:35:49.793Z,923.54
2017-05-15T04:37:01.181Z,923.53
2017-05-15T04:37:29.497Z,923.52
2017-05-15T04:37:57.858Z,923.5
2017-05-15T04:38:26.097Z,923.52
2017-05-15T04:38:54.379Z,923.52
2017-05-15T04:39:22.660Z,923.51
2017-05-15T04:39:50.920Z,923.5
2017-05-15T04:40:19.340Z,923.51
2017-05-15T04:40:47.572Z,923.49
2017-05-15T04:41:15.854Z,923.5
2017-05-15T04:41:44.167Z,923.56
2017-05-15T04:42:55.647Z,923.51
2017-05-15T04:43:23.960Z,923.51
2017-05-15T04:43:52.319Z,923.5
2017-05-15T04:44:20.558Z,923.51
2017-05-15T04:44:48.842Z,923.47
2017-05-15T04:45:17.221Z,923.48
2017-05-15T04:45:45.489Z,923.47
2017-05-15T04:46:13.913Z,923.5
2017-05-15T04:46:42.326Z,923.48
2017-05-15T04:47:10.698Z,923.52
2017-05-15T04:47:38.921Z,923.47
2017-05-15T04:48:50.406Z,923.51
2017-05-15T04:49:18.816Z,923.53
2017-05-15T04:49:46.993Z,923.53
2017-05-15T04:50:15.325Z,923.53
2017-05-15T04:50:43.697Z,923.58
2017-05-15T04:51:12.076Z,923.62
2017-05-15T04:51:40.430Z,923.65
2017-05-15T04:52:08.854Z,923.62
2017-05-15T04:52:37.185Z,923.63
2017-05-15T04:53:05.557Z,923.62
2017-05-15T04:53:33.875Z,923.62
2017-05-15T04:54:45.261Z,923.63
2017-05-15T04:55:13.672Z,923.64
2017-05-15T04:55:41.938Z,923.69
2017-05-15T04:56:10.179Z,923.7
2017-05-15T04:56:38.458Z,923.68
2017-05-15T04:57:06.746Z,923.67
2017-05-15T04:57:34.915Z,923.67
2017-05-15T04:58:03.338Z,923.72
2017-05-15T04:58:31.663Z,923.68
2017-05-15T04:58:59.945Z,923.62
2017-05-15T04:59:28.364Z,923.63
2017-05-15T05:00:39.567Z,923.62
2017-05-15T05:01:07.885Z,923.63
2017-05-15T05:01:36.156Z,923.61
2017-05-15T05:02:04.393Z,923.62
2017-05-15T05:02:32.765Z,923.6
2017-05-15T05:03:01.150Z,923.62
2017-05-15T05:03:29.503Z,923.6
2017-05-15T05:03:57.927Z,923.62
2017-05-15T05:04:26.338Z,923.62
2017-05-15T05:04:54.528Z,923.62
2017-05-15T05:05:22.942Z,923.61
2017-05-15T05:06:34.424Z,923.63
2017-05-15T05:07:02.735Z,923.61
2017-05-15T05:07:30.998Z,923.61
2017-05-15T05:07:59.331Z,923.55
2017-05-15T05:08:27.611Z,923.58
2017-05-15T05:08:55.900Z,923.58
2017-05-15T05:09:24.072Z,923.59
2017-05-15T05:09:52.498Z,923.6
2017-05-15T05:10:20.822Z,923.58
2017-05-15T05:10:49.103Z,923.6
2017-05-15T05:11:17.517Z,923.59
2017-05-15T05:12:28.994Z,923.61
2017-05-15T05:12:57.224Z,923.54
2017-05-15T05:13:25.581Z,923.58
2017-05-15T05:13:53.912Z,923.58
2017-05-15T05:14:22.286Z,923.59
2017-05-15T05:14:50.667Z,923.52
2017-05-15T05:15:19.019Z,923.52
2017-05-15T05:15:47.346Z,923.53
2017-05-15T05:16:15.668Z,923.53
2017-05-15T05:16:44.039Z,923.56
2017-05-15T05:17:12.452Z,923.55
2017-05-15T05:18:23.932Z,923.53
2017-05-15T05:18:52.248Z,923.5
2017-05-15T05:19:20.514Z,923.49
2017-05-15T05:19:48.756Z,923.53
2017-05-15T05:20:17.132Z,923.52
2017-05-15T05:20:45.511Z,923.49
2017-05-15T05:21:13.772Z,923.5
2017-05-15T05:21:42.196Z,923.49
2017-05-15T05:22:10.611Z,923.54
2017-05-15T05:22:38.887Z,923.48
2017-05-15T05:23:07.296Z,923.55
2017-05-15T05:24:18.685Z,923.55
2017-05-15T05:24:46.998Z,923.56
2017-05-15T05:25:15.364Z,923.57
2017-05-15T05:25:43.699Z,923.55
2017-05-15T05:26:11.979Z,923.53
2017-05-15T05:26:40.360Z,923.54
2017-05-15T05:27:08.717Z,923.54
2017-05-15T05:27:37.040Z,923.54
2017-05-15T05:28:05.365Z,923.52
2017-05-15T05:28:33.643Z,923.52
2017-05-15T05:29:02.050Z,923.52
2017-05-15T05:30:13.347Z,923.54
2017-05-15T05:30:41.753Z,923.5
2017-05-15T05:31:09.929Z,923.49
2017-05-15T05:31:38.161Z,923.48
2017-05-15T05:32:06.445Z,923.49
2017-05-15T05:32:34.731Z,923.49
2017-05-15T05:33:03.091Z,923.45
2017-05-15T05:33:31.423Z,923.48
2017-05-15T05:33:59.747Z,923.44
2017-05-15T05:34:28.125Z,923.48
2017-05-15T05:34:56.529Z,923.44
2017-05-15T05:36:07.916Z,923.41
2017-05-15T05:36:36.325Z,923.4
2017-05-15T05:37:04.594Z,923.39
2017-05-15T05:37:32.832Z,923.42
2017-05-15T05:38:01.016Z,923.39
2017-05-15T05:38:29.214Z,923.39
2017-05-15T05:38:57.383Z,923.36
2017-05-15T05:39:25.718Z,923.38
2017-05-15T05:39:54.129Z,923.39
2017-05-15T05:40:22.404Z,923.36
2017-05-15T05:40:50.810Z,923.38
2017-05-15T05:42:02.198Z,923.38
2017-05-15T05:42:30.511Z,923.4
2017-05-15T05:42:58.872Z,923.35
2017-05-15T05:43:27.116Z,923.39
2017-05-15T05:43:55.305Z,923.37
2017-05-15T05:44:23.593Z,923.39
2017-05-15T05:44:51.861Z,923.38
2017-05-15T05:45:20.285Z,923.4
2017-05-15T05:45:48.607Z,923.38
2017-05-15T05:46:16.977Z,923.38
2017-05-15T05:46:45.390Z,923.39
2017-05-15T05:47:56.778Z,923.36
2017-05-15T05:48:25.090Z,923.4
2017-05-15T05:48:53.451Z,923.34
2017-05-15T05:49:21.785Z,923.34
2017-05-15T05:49:49.975Z,923.34
2017-05-15T05:50:18.352Z,923.31
2017-05-15T05:50:46.615Z,923.33
2017-05-15T05:51:14.938Z,923.34
2017-05-15T05:51:43.174Z,923.34
2017-05-15T05:52:11.459Z,923.35
2017-05-15T05:52:39.870Z,923.3
2017-05-15T05:53:51.343Z,923.34
2017-05-15T05:54:19.750Z,923.31
2017-05-15T05:54:48.106Z,923.34
2017-05-15T05:55:16.438Z,923.36
2017-05-15T05:55:44.714Z,923.31
2017-05-15T05:56:13.097Z,923.33
2017-05-15T05:56:41.446Z,923.34
2017-05-15T05:57:09.681Z,923.3
2017-05-15T05:57:38.098Z,923.31
2017-05-15T05:58:06.374Z,923.31
2017-05-15T05:58:34.785Z,923.29
2017-05-15T05:59:46.266Z,923.27
2017-05-15T06:00:14.668Z,923.25
2017-05-15T06:00:42.841Z,923.27
2017-05-15T06:01:11.076Z,923.29
2017-05-15T06:01:39.364Z,923.28
2017-05-15T06:02:07.749Z,923.28
2017-05-15T06:02:36.100Z,923.25
2017-05-15T06:03:04.340Z,923.24
2017-05-15T06:03:32.757Z,923.24
2017-05-15T06:04:01.036Z,923.23
2017-05-15T06:04:29.350Z,923.24
2017-05-15T06:05:40.732Z,923.23
2017-05-15T06:06:09.043Z,923.25
2017-05-15T06:06:37.399Z,923.22
2017-05-15T06:07:05.540Z,923.24
2017-05-15T06:07:33.913Z,923.22
2017-05-15T06:08:02.201Z,923.27
2017-05-15T06:08:30.562Z,923.28
2017-05-15T06:08:58.988Z,923.25
2017-05-15T06:09:27.402Z,923.25
2017-05-15T06:09:55.679Z,923.25
2017-05-15T06:10:23.910Z,923.28
2017-05-15T06:11:35.205Z,923.26
2017-05-15T06:12:03.432Z,923.24
2017-05-15T06:12:31.612Z,923.22
2017-05-15T06:12:59.753Z,923.24
2017-05-15T06:13:28.037Z,923.22
2017-05-15T06:13:56.138Z,923.21
2017-05-15T06:14:24.407Z,923.24
2017-05-15T06:14:52.827Z,923.24
2017-05-15T06:15:21.246Z,923.24
2017-05-15T06:15:49.519Z,923.23
2017-05-15T06:16:17.930Z,923.21
2017-05-15T06:17:29.411Z,923.25
2017-05-15T06:17:57.823Z,923.23
2017-05-15T06:18:26.189Z,923.24
2017-05-15T06:18:54.426Z,923.22
2017-05-15T06:19:22.705Z,923.23
2017-05-15T06:19:50.896Z,923.19
2017-05-15T06:20:19.251Z,923.17
2017-05-15T06:20:47.584Z,923.19
2017-05-15T06:21:15.912Z,923.18
2017-05-15T06:21:44.196Z,923.15
2017-05-15T06:22:12.605Z,923.19
2017-05-15T06:23:23.902Z,923.22
2017-05-15T06:23:52.220Z,923.21
2017-05-15T06:24:20.479Z,923.22
2017-05-15T06:24:48.711Z,923.2
2017-05-15T06:25:17.084Z,923.2
2017-05-15T06:25:45.464Z,923.24
2017-05-15T06:26:13.822Z,923.21
2017-05-15T06:26:42.246Z,923.16
2017-05-15T06:27:10.577Z,923.19
2017-05-15T06:27:38.950Z,923.18
2017-05-15T06:28:07.358Z,923.18
2017-05-15T06:29:18.841Z,923.19
2017-05-15T06:29:47.246Z,923.2
2017-05-15T06:30:15.515Z,923.22
2017-05-15T06:30:43.848Z,923.19
2017-05-15T06:31:12.125Z,923.16
2017-05-15T06:31:40.409Z,923.18
2017-05-15T06:32:08.669Z,923.19
2017-05-15T06:32:36.902Z,923.21
2017-05-15T06:33:05.316Z,923.19
2017-05-15T06:33:33.600Z,923.18
2017-05-15T06:34:02.013Z,923.15
2017-05-15T06:35:13.393Z,923.17
2017-05-15T06:35:41.708Z,923.15
2017-05-15T06:36:09.884Z,923.19
2017-05-15T06:36:38.222Z,923.2
2017-05-15T06:37:06.410Z,923.18
2017-05-15T06:37:34.790Z,923.19
2017-05-15T06:38:03.052Z,923.18
2017-05-15T06:38:31.290Z,923.19
2017-05-15T06:38:59.703Z,923.18
2017-05-15T06:39:27.986Z,923.16
2017-05-15T06:39:56.402Z,923.16
2017-05-15T06:41:07.874Z,923.18
2017-05-15T06:41:36.182Z,923.18
2017-05-15T06:42:04.444Z,923.19
2017-05-15T06:42:32.773Z,923.21
2017-05-15T06:43:00.962Z,923.23
2017-05-15T06:43:29.154Z,923.21